createdAt,value
2016-07-13T00:00:22.464Z,23.17
2016-07-13T00:01:17.966Z,23.17
2016-07-13T00:02:12.342Z,23.15
2016-07-13T00:03:24.022Z,23.17
2016-07-13T00:04:19.709Z,23.17
2016-07-13T00:05:17.688Z,23.16
2016-07-13T00:06:18.363Z,23.16
2016-07-13T00:07:17.853Z,23.16
2016-07-13T00:08:23.359Z,23.17
2016-07-13T00:09:18.229Z,23.15
2016-07-13T00:10:22.280Z,23.15
2016-07-13T00:11:25.773Z,23.14
2016-07-13T00:12:17.023Z,23.13
2016-07-13T00:13:22.133Z,23.18
2016-07-13T00:14:21.385Z,23.13
2016-07-13T00:15:20.977Z,23.16
2016-07-13T00:16:22.683Z,23.13
2016-07-13T00:17:22.526Z,23.13
2016-07-13T00:18:18.807Z,23.14
2016-07-13T00:19:16.562Z,23.13
2016-07-13T00:30:40.040Z,23.13
2016-07-13T00:31:17.926Z,23.12
2016-07-13T00:32:16.569Z,23.11
2016-07-13T00:33:18.098Z,23.12
2016-07-13T00:34:22.241Z,23.12
2016-07-13T00:35:18.214Z,23.10
2016-07-13T00:36:16.789Z,23.09
2016-07-13T00:37:21.159Z,23.08
2016-07-13T00:38:22.174Z,23.08
2016-07-13T00:39:20.087Z,23.09
2016-07-13T00:40:18.970Z,23.09
2016-07-13T00:41:21.538Z,23.08
2016-07-13T00:42:14.136Z,23.09
2016-07-13T00:43:22.894Z,23.10
2016-07-13T00:44:22.687Z,23.12
2016-07-13T00:45:21.189Z,23.11
2016-07-13T00:46:20.448Z,23.11
2016-07-13T00:47:22.250Z,23.63
2016-07-13T00:48:21.431Z,23.68
2016-07-13T00:49:26.100Z,23.35
2016-07-13T00:50:20.477Z,23.20
2016-07-13T00:51:24.273Z,23.14
2016-07-13T00:52:15.105Z,23.12
2016-07-13T00:53:19.373Z,23.11
2016-07-13T00:54:18.970Z,23.11
2016-07-13T00:55:28.300Z,23.10
2016-07-13T00:56:22.775Z,23.10
2016-07-13T00:57:14.692Z,23.10
2016-07-13T00:58:21.335Z,23.62
2016-07-13T00:59:20.800Z,23.66
2016-07-13T01:00:17.172Z,23.69
2016-07-13T01:01:26.399Z,23.70
2016-07-13T01:02:22.979Z,23.71
2016-07-13T01:03:16.706Z,23.72
2016-07-13T01:04:16.359Z,23.71
2016-07-13T01:05:28.426Z,23.72
2016-07-13T01:06:21.822Z,23.70
2016-07-13T01:07:21.547Z,23.72
2016-07-13T01:08:21.870Z,23.70
2016-07-13T01:09:23.997Z,23.72
2016-07-13T01:10:15.922Z,23.38
2016-07-13T01:11:22.264Z,23.18
2016-07-13T01:12:28.422Z,23.14
2016-07-13T01:13:17.202Z,23.12
2016-07-13T01:14:22.702Z,23.10
2016-07-13T01:15:17.180Z,23.09
2016-07-13T01:16:16.640Z,23.10
2016-07-13T01:17:18.832Z,23.09
2016-07-13T01:18:27.229Z,23.09
2016-07-13T01:19:16.597Z,23.08
2016-07-13T01:20:19.061Z,23.61
2016-07-13T01:21:21.465Z,23.65
2016-07-13T01:22:21.943Z,23.67
2016-07-13T01:23:22.394Z,23.69
2016-07-13T01:24:19.191Z,23.67
2016-07-13T01:25:13.368Z,23.68
2016-07-13T01:26:17.294Z,23.70
2016-07-13T01:27:17.678Z,23.69
2016-07-13T01:28:20.904Z,23.16
2016-07-13T01:29:21.139Z,23.11
2016-07-13T01:30:16.471Z,23.09
2016-07-13T01:31:24.879Z,23.08
2016-07-13T01:32:21.962Z,23.07
2016-07-13T01:33:26.396Z,23.07
2016-07-13T01:34:19.676Z,23.06
2016-07-13T01:35:19.990Z,23.06
2016-07-13T01:36:16.706Z,23.07
2016-07-13T01:37:22.799Z,23.06
2016-07-13T01:38:23.954Z,23.09
2016-07-13T01:39:21.706Z,23.09
2016-07-13T01:40:25.013Z,23.06
2016-07-13T01:41:15.938Z,23.06
2016-07-13T01:42:23.317Z,23.06
2016-07-13T01:43:21.722Z,23.05
2016-07-13T01:44:21.080Z,23.05
2016-07-13T01:45:16.685Z,23.06
2016-07-13T01:46:30.313Z,23.05
2016-07-13T01:47:24.804Z,23.05
2016-07-13T01:48:17.634Z,23.05
2016-07-13T01:49:23.511Z,23.04
2016-07-13T01:50:27.531Z,23.06
2016-07-13T01:51:16.628Z,23.04
2016-07-13T01:52:22.210Z,23.04
2016-07-13T01:53:21.454Z,23.04
2016-07-13T01:54:17.007Z,23.04
2016-07-13T01:55:17.205Z,23.04
2016-07-13T01:56:25.674Z,23.04
2016-07-13T01:57:17.446Z,23.04
2016-07-13T01:58:17.087Z,23.04
2016-07-13T01:59:16.855Z,23.04
2016-07-13T02:00:17.260Z,23.03
2016-07-13T02:01:22.128Z,23.03
2016-07-13T02:02:21.157Z,23.04
2016-07-13T02:03:27.347Z,23.03
2016-07-13T02:04:19.836Z,23.04
2016-07-13T02:05:22.268Z,23.03
2016-07-13T02:06:25.645Z,23.04
2016-07-13T02:07:22.031Z,23.03
2016-07-13T02:08:23.288Z,23.02
2016-07-13T02:09:16.826Z,23.02
2016-07-13T02:10:22.861Z,23.03
2016-07-13T02:11:18.720Z,23.03
2016-07-13T02:12:18.624Z,23.02
2016-07-13T02:13:18.143Z,23.02
2016-07-13T02:14:26.114Z,23.02
2016-07-13T02:15:21.956Z,23.05
2016-07-13T02:16:21.940Z,23.02
2016-07-13T02:17:23.487Z,23.54
2016-07-13T02:18:21.127Z,23.60
2016-07-13T02:19:23.412Z,23.62
2016-07-13T02:20:21.038Z,23.63
2016-07-13T02:21:17.564Z,23.27
2016-07-13T02:22:22.750Z,23.10
2016-07-13T02:23:20.445Z,23.07
2016-07-13T02:24:19.326Z,23.05
2016-07-13T02:25:27.117Z,23.03
2016-07-13T02:26:21.293Z,23.03
2016-07-13T02:27:22.163Z,23.01
2016-07-13T02:28:23.087Z,23.02
2016-07-13T02:29:22.606Z,23.01
2016-07-13T02:30:20.496Z,23.02
2016-07-13T02:31:17.534Z,23.02
2016-07-13T02:32:12.367Z,23.02
2016-07-13T02:33:16.798Z,23.01
2016-07-13T02:34:21.127Z,23.01
2016-07-13T02:35:22.581Z,23.01
2016-07-13T02:36:25.769Z,23.00
2016-07-13T02:37:26.770Z,23.01
2016-07-13T02:38:23.627Z,23.00
2016-07-13T02:39:16.877Z,23.00
2016-07-13T02:40:16.603Z,23.00
2016-07-13T02:41:26.519Z,23.01
2016-07-13T02:42:23.276Z,22.99
2016-07-13T02:43:16.502Z,23.00
2016-07-13T02:44:25.926Z,22.99
2016-07-13T02:45:15.796Z,23.00
2016-07-13T02:46:25.531Z,23.00
2016-07-13T02:47:25.332Z,23.00
2016-07-13T02:48:17.456Z,23.01
2016-07-13T02:49:22.941Z,23.00
2016-07-13T02:50:16.036Z,23.00
2016-07-13T02:51:18.603Z,23.00
2016-07-13T02:52:21.070Z,22.99
2016-07-13T02:53:20.360Z,23.00
2016-07-13T02:54:22.350Z,22.99
2016-07-13T02:55:22.956Z,22.99
2016-07-13T02:56:23.555Z,23.00
2016-07-13T02:57:26.142Z,22.99
2016-07-13T02:58:20.218Z,22.99
2016-07-13T02:59:17.299Z,22.99
2016-07-13T03:00:21.230Z,22.99
2016-07-13T03:01:16.732Z,22.99
2016-07-13T03:02:15.198Z,22.99
2016-07-13T03:03:17.202Z,23.00
2016-07-13T03:04:15.936Z,22.99
2016-07-13T03:05:17.886Z,23.00
2016-07-13T03:06:16.895Z,22.99
2016-07-13T03:07:21.323Z,22.98
2016-07-13T03:08:20.572Z,22.99
2016-07-13T03:09:26.517Z,22.98
2016-07-13T03:10:26.269Z,22.99
2016-07-13T03:11:20.866Z,23.00
2016-07-13T03:12:16.726Z,22.99
2016-07-13T03:13:17.378Z,22.98
2016-07-13T03:14:19.183Z,22.98
2016-07-13T03:15:20.419Z,22.99
2016-07-13T03:16:24.625Z,22.99
2016-07-13T03:17:22.354Z,23.01
2016-07-13T03:18:22.618Z,23.00
2016-07-13T03:19:21.410Z,23.00
2016-07-13T03:20:25.775Z,22.98
2016-07-13T03:21:17.595Z,22.99
2016-07-13T03:22:12.426Z,22.98
2016-07-13T03:23:16.219Z,23.50
2016-07-13T03:24:20.384Z,23.55
2016-07-13T03:25:14.964Z,23.57
2016-07-13T03:26:16.450Z,23.06
2016-07-13T03:27:21.805Z,23.01
2016-07-13T03:28:19.359Z,23.02
2016-07-13T03:29:16.659Z,23.01
2016-07-13T03:30:19.939Z,22.98
2016-07-13T03:31:20.640Z,22.98
2016-07-13T03:32:28.616Z,22.97
2016-07-13T03:33:14.818Z,22.98
2016-07-13T03:34:25.782Z,22.97
2016-07-13T03:35:16.533Z,22.98
2016-07-13T03:36:18.219Z,22.97
2016-07-13T03:37:19.049Z,22.99
2016-07-13T03:38:18.635Z,22.97
2016-07-13T03:39:20.597Z,22.97
2016-07-13T03:40:16.037Z,22.98
2016-07-13T03:41:15.326Z,22.96
2016-07-13T03:42:20.312Z,22.96
2016-07-13T03:43:21.855Z,22.97
2016-07-13T03:44:21.829Z,22.96
2016-07-13T03:45:17.000Z,22.96
2016-07-13T03:46:16.432Z,22.96
2016-07-13T03:47:16.738Z,23.48
2016-07-13T03:48:21.481Z,23.54
2016-07-13T03:49:20.976Z,23.54
2016-07-13T03:50:18.425Z,23.57
2016-07-13T03:51:22.631Z,23.56
2016-07-13T03:52:22.216Z,23.58
2016-07-13T03:53:17.730Z,23.56
2016-07-13T03:54:20.297Z,23.26
2016-07-13T03:55:21.846Z,23.05
2016-07-13T03:56:21.642Z,23.01
2016-07-13T03:57:23.493Z,22.99
2016-07-13T03:58:22.387Z,22.98
2016-07-13T03:59:16.965Z,22.98
2016-07-13T04:00:26.890Z,22.97
2016-07-13T04:01:16.157Z,22.97
2016-07-13T04:02:21.691Z,22.99
2016-07-13T04:03:18.725Z,23.00
2016-07-13T04:04:21.269Z,22.96
2016-07-13T04:05:21.517Z,22.96
2016-07-13T04:06:27.206Z,22.96
2016-07-13T04:07:18.856Z,22.96
2016-07-13T04:08:22.429Z,22.96
2016-07-13T04:09:22.046Z,22.95
2016-07-13T04:10:16.419Z,22.96
2016-07-13T04:11:27.048Z,22.96
2016-07-13T04:12:22.938Z,22.96
2016-07-13T04:13:26.886Z,22.95
2016-07-13T04:14:19.931Z,22.95
2016-07-13T04:15:17.992Z,22.96
2016-07-13T04:16:23.272Z,22.95
2016-07-13T04:17:22.510Z,22.95
2016-07-13T04:18:26.411Z,22.96
2016-07-13T04:19:21.710Z,22.96
2016-07-13T04:20:20.898Z,22.95
2016-07-13T04:21:21.950Z,22.95
2016-07-13T04:22:16.637Z,22.95
2016-07-13T04:23:17.281Z,22.96
2016-07-13T04:24:20.018Z,22.95
2016-07-13T04:25:16.491Z,22.97
2016-07-13T04:26:22.867Z,22.96
2016-07-13T04:27:20.272Z,22.95
2016-07-13T04:28:19.177Z,22.95
2016-07-13T04:29:18.301Z,22.95
2016-07-13T04:30:14.510Z,22.96
2016-07-13T04:31:16.686Z,22.95
2016-07-13T04:32:16.992Z,22.95
2016-07-13T04:33:16.821Z,22.95
2016-07-13T04:34:22.120Z,22.96
2016-07-13T04:35:21.611Z,22.95
2016-07-13T04:36:17.636Z,22.94
2016-07-13T04:37:21.739Z,23.46
2016-07-13T04:38:15.177Z,22.99
2016-07-13T04:39:15.404Z,22.95
2016-07-13T04:40:21.459Z,22.95
2016-07-13T04:41:16.855Z,22.95
2016-07-13T04:42:16.620Z,22.95
2016-07-13T04:43:16.770Z,22.98
2016-07-13T04:44:16.920Z,22.97
2016-07-13T04:45:19.749Z,22.94
2016-07-13T04:46:21.840Z,22.94
2016-07-13T04:47:22.771Z,22.94
2016-07-13T04:48:17.008Z,22.95
2016-07-13T04:49:20.804Z,22.94
2016-07-13T04:50:15.282Z,22.94
2016-07-13T04:51:20.819Z,22.94
2016-07-13T04:52:22.785Z,22.95
2016-07-13T04:53:17.072Z,22.94
2016-07-13T04:54:19.443Z,22.94
2016-07-13T04:55:22.224Z,22.94
2016-07-13T04:56:21.687Z,22.97
2016-07-13T04:57:26.800Z,22.93
2016-07-13T04:58:21.666Z,22.93
2016-07-13T04:59:20.775Z,23.46
2016-07-13T05:00:21.502Z,23.51
2016-07-13T05:01:21.908Z,23.54
2016-07-13T05:02:16.216Z,23.23
2016-07-13T05:03:14.864Z,23.03
2016-07-13T05:04:18.456Z,23.01
2016-07-13T05:05:17.056Z,22.98
2016-07-13T05:06:23.687Z,22.96
2016-07-13T05:07:21.580Z,22.95
2016-07-13T05:08:17.727Z,22.93
2016-07-13T05:09:20.857Z,23.10
2016-07-13T05:10:13.689Z,22.97
2016-07-13T05:11:20.706Z,23.47
2016-07-13T05:12:13.020Z,23.49
2016-07-13T05:13:19.745Z,23.50
2016-07-13T05:14:21.707Z,23.51
2016-07-13T05:15:13.519Z,23.50
2016-07-13T05:16:19.159Z,23.51
2016-07-13T05:17:21.316Z,23.53
2016-07-13T05:18:22.565Z,23.50
2016-07-13T05:19:26.156Z,23.52
2016-07-13T05:20:17.101Z,23.17
2016-07-13T05:21:21.851Z,23.02
2016-07-13T05:22:19.305Z,22.96
2016-07-13T05:23:18.429Z,22.94
2016-07-13T05:24:21.586Z,22.95
2016-07-13T05:25:24.551Z,22.95
2016-07-13T05:26:20.840Z,22.97
2016-07-13T05:27:23.199Z,22.96
2016-07-13T05:28:19.761Z,22.97
2016-07-13T05:29:26.115Z,22.95
2016-07-13T05:30:21.366Z,22.96
2016-07-13T05:31:15.789Z,22.95
2016-07-13T05:32:24.499Z,22.95
2016-07-13T05:33:11.400Z,22.96
2016-07-13T05:34:15.606Z,23.48
2016-07-13T05:35:16.854Z,23.54
2016-07-13T05:36:23.227Z,23.54
2016-07-13T05:37:16.275Z,23.05
2016-07-13T05:38:17.200Z,23.00
2016-07-13T05:39:13.314Z,22.98
2016-07-13T05:40:22.521Z,22.96
2016-07-13T05:41:21.296Z,22.96
2016-07-13T05:42:20.364Z,22.95
2016-07-13T05:43:17.922Z,22.98
2016-07-13T05:44:13.498Z,22.94
2016-07-13T05:45:21.636Z,23.47
2016-07-13T05:46:21.991Z,23.52
2016-07-13T05:47:17.802Z,23.54
2016-07-13T05:48:16.577Z,23.57
2016-07-13T05:49:13.558Z,23.58
2016-07-13T05:50:16.851Z,23.58
2016-07-13T05:51:19.443Z,23.59
2016-07-13T05:52:20.196Z,23.62
2016-07-13T05:53:18.919Z,23.60
2016-07-13T05:54:18.211Z,23.26
2016-07-13T05:55:20.126Z,23.08
2016-07-13T05:56:20.582Z,23.06
2016-07-13T05:57:15.505Z,23.03
2016-07-13T05:58:20.902Z,23.02
2016-07-13T05:59:11.462Z,23.05
2016-07-13T06:00:12.122Z,23.04
2016-07-13T06:01:12.678Z,23.03
2016-07-13T06:02:21.867Z,23.06
2016-07-13T06:03:28.919Z,23.08
2016-07-13T06:04:21.915Z,23.12
2016-07-13T06:05:16.092Z,23.16
2016-07-13T06:06:15.738Z,23.05
2016-07-13T06:07:20.356Z,22.47
2016-07-13T06:08:16.162Z,22.03
2016-07-13T06:09:21.306Z,21.75
2016-07-13T06:10:21.014Z,21.51
2016-07-13T06:11:29.804Z,21.42
2016-07-13T06:12:17.300Z,21.30
2016-07-13T06:13:20.444Z,21.20
2016-07-13T06:14:20.744Z,21.11
2016-07-13T06:15:21.016Z,21.08
2016-07-13T06:16:21.938Z,21.00
2016-07-13T06:17:27.855Z,21.01
2016-07-13T06:18:16.473Z,20.94
2016-07-13T06:19:21.056Z,20.96
2016-07-13T06:20:19.221Z,21.03
2016-07-13T06:21:20.560Z,20.90
2016-07-13T06:22:23.483Z,20.86
2016-07-13T06:23:24.485Z,21.02
2016-07-13T06:24:25.996Z,21.00
2016-07-13T06:25:20.546Z,21.51
2016-07-13T06:26:19.777Z,21.77
2016-07-13T06:27:23.472Z,22.01
2016-07-13T06:28:15.978Z,22.19
2016-07-13T06:29:16.927Z,22.36
2016-07-13T06:30:17.349Z,22.49
2016-07-13T06:31:18.177Z,22.60
2016-07-13T06:32:22.176Z,22.70
2016-07-13T06:33:26.280Z,22.24
2016-07-13T06:34:17.527Z,22.26
2016-07-13T06:35:20.562Z,22.32
2016-07-13T06:36:23.437Z,22.34
2016-07-13T06:37:19.015Z,22.37
2016-07-13T06:38:15.054Z,22.40
2016-07-13T06:39:18.542Z,22.43
2016-07-13T06:40:20.735Z,22.46
2016-07-13T06:41:17.035Z,22.47
2016-07-13T06:42:21.943Z,22.49
2016-07-13T06:43:16.217Z,22.51
2016-07-13T06:44:22.495Z,22.53
2016-07-13T06:45:14.757Z,22.54
2016-07-13T06:46:22.505Z,22.57
2016-07-13T06:47:21.164Z,22.59
2016-07-13T06:48:17.688Z,22.59
2016-07-13T06:49:15.852Z,22.58
2016-07-13T06:50:18.418Z,22.59
2016-07-13T06:51:22.624Z,22.60
2016-07-13T06:52:17.249Z,22.61
2016-07-13T06:53:15.065Z,22.62
2016-07-13T06:54:17.440Z,22.62
2016-07-13T06:55:18.354Z,22.63
2016-07-13T06:56:19.749Z,22.64
2016-07-13T06:57:18.406Z,22.65
2016-07-13T06:58:19.811Z,22.68
2016-07-13T06:59:20.506Z,22.66
2016-07-13T07:00:20.336Z,22.66
2016-07-13T07:01:21.929Z,22.66
2016-07-13T07:02:16.967Z,22.66
2016-07-13T07:03:16.840Z,22.68
2016-07-13T07:04:18.933Z,22.68
2016-07-13T07:05:17.088Z,22.68
2016-07-13T07:06:18.468Z,22.69
2016-07-13T07:07:14.141Z,22.68
2016-07-13T07:08:20.841Z,22.69
2016-07-13T07:09:20.548Z,22.70
2016-07-13T07:10:19.181Z,22.70
2016-07-13T07:11:30.967Z,22.70
2016-07-13T07:12:22.687Z,22.70
2016-07-13T07:13:22.940Z,22.71
2016-07-13T07:14:17.087Z,22.71
2016-07-13T07:15:22.923Z,22.71
2016-07-13T07:16:16.657Z,22.72
2016-07-13T07:17:20.052Z,22.73
2016-07-13T07:18:20.469Z,22.72
2016-07-13T07:19:19.757Z,22.72
2016-07-13T07:20:22.009Z,22.76
2016-07-13T07:21:20.767Z,22.75
2016-07-13T07:22:16.560Z,22.73
2016-07-13T07:23:17.175Z,22.74
2016-07-13T07:24:19.017Z,22.74
2016-07-13T07:25:19.102Z,22.74
2016-07-13T07:26:17.985Z,22.74
2016-07-13T07:27:17.307Z,22.74
2016-07-13T07:28:18.614Z,22.75
2016-07-13T07:29:25.361Z,22.75
2016-07-13T07:30:23.402Z,22.74
2016-07-13T07:31:20.464Z,22.78
2016-07-13T07:32:21.066Z,22.76
2016-07-13T07:33:30.527Z,22.76
2016-07-13T07:34:20.084Z,22.76
2016-07-13T07:35:17.556Z,22.76
2016-07-13T07:36:18.450Z,22.76
2016-07-13T07:37:17.029Z,22.77
2016-07-13T07:38:20.929Z,22.77
2016-07-13T07:39:12.297Z,22.76
2016-07-13T07:40:20.119Z,22.78
2016-07-13T07:41:25.861Z,22.77
2016-07-13T07:42:20.158Z,22.77
2016-07-13T07:43:24.133Z,22.78
2016-07-13T07:44:18.302Z,23.30
2016-07-13T07:45:17.089Z,23.35
2016-07-13T07:46:15.657Z,23.36
2016-07-13T07:47:16.336Z,23.38
2016-07-13T07:48:17.308Z,23.39
2016-07-13T07:49:22.150Z,23.38
2016-07-13T07:50:18.859Z,23.41
2016-07-13T07:51:28.188Z,23.40
2016-07-13T07:52:16.826Z,23.38
2016-07-13T07:53:21.280Z,22.88
2016-07-13T07:54:21.494Z,22.83
2016-07-13T07:55:21.710Z,23.34
2016-07-13T07:56:16.749Z,23.37
2016-07-13T07:57:15.859Z,23.38
2016-07-13T07:58:15.647Z,23.40
2016-07-13T07:59:16.588Z,23.40
2016-07-13T08:00:17.169Z,23.39
2016-07-13T08:01:20.272Z,23.40
2016-07-13T08:02:16.891Z,23.04
2016-07-13T08:03:19.878Z,22.89
2016-07-13T08:04:22.478Z,22.84
2016-07-13T08:05:25.728Z,22.82
2016-07-13T08:06:21.365Z,22.81
2016-07-13T08:07:16.117Z,22.81
2016-07-13T08:08:23.396Z,22.80
2016-07-13T08:09:17.070Z,22.82
2016-07-13T08:10:15.731Z,22.81
2016-07-13T08:11:19.220Z,22.82
2016-07-13T08:12:23.301Z,22.81
2016-07-13T08:13:20.562Z,22.82
2016-07-13T08:14:20.820Z,22.82
2016-07-13T08:15:20.432Z,22.82
2016-07-13T08:16:18.232Z,22.83
2016-07-13T08:17:23.088Z,22.82
2016-07-13T08:18:17.448Z,23.33
2016-07-13T08:19:25.133Z,23.02
2016-07-13T08:20:24.917Z,22.91
2016-07-13T08:21:23.099Z,22.85
2016-07-13T08:22:14.125Z,22.83
2016-07-13T08:23:15.478Z,22.84
2016-07-13T08:24:15.088Z,22.83
2016-07-13T08:25:20.454Z,22.83
2016-07-13T08:26:20.150Z,23.35
2016-07-13T08:27:22.624Z,22.90
2016-07-13T08:28:21.864Z,22.89
2016-07-13T08:29:23.415Z,22.89
2016-07-13T08:30:18.130Z,22.87
2016-07-13T08:31:22.798Z,22.86
2016-07-13T08:32:16.301Z,22.87
2016-07-13T08:33:16.419Z,22.87
2016-07-13T08:34:20.104Z,22.86
2016-07-13T08:35:21.506Z,22.89
2016-07-13T08:36:22.069Z,22.92
2016-07-13T08:37:15.725Z,22.88
2016-07-13T08:38:15.803Z,22.89
2016-07-13T08:39:20.245Z,22.90
2016-07-13T08:40:19.638Z,22.89
2016-07-13T08:41:19.852Z,22.89
2016-07-13T08:42:13.261Z,22.90
2016-07-13T08:43:17.306Z,22.90
2016-07-13T08:44:17.005Z,22.89
2016-07-13T08:45:17.115Z,22.89
2016-07-13T08:46:24.495Z,22.90
2016-07-13T08:47:21.223Z,22.90
2016-07-13T08:48:14.322Z,22.91
2016-07-13T08:49:17.664Z,22.92
2016-07-13T08:50:17.868Z,22.93
2016-07-13T08:51:19.412Z,22.93
2016-07-13T08:52:22.915Z,22.95
2016-07-13T08:53:23.632Z,22.99
2016-07-13T08:54:17.795Z,22.96
2016-07-13T08:55:20.412Z,22.98
2016-07-13T08:56:18.016Z,22.96
2016-07-13T08:57:23.551Z,22.95
2016-07-13T08:58:21.611Z,23.01
2016-07-13T08:59:22.091Z,23.01
2016-07-13T09:00:19.158Z,22.95
2016-07-13T09:01:16.122Z,22.95
2016-07-13T09:02:16.436Z,22.94
2016-07-13T09:03:11.614Z,22.93
2016-07-13T09:04:18.585Z,23.11
2016-07-13T09:05:20.027Z,22.97
2016-07-13T09:06:16.756Z,22.96
2016-07-13T09:07:17.722Z,22.95
2016-07-13T09:08:20.049Z,22.94
2016-07-13T09:09:21.758Z,22.96
2016-07-13T09:10:20.849Z,22.95
2016-07-13T09:11:15.667Z,22.95
2016-07-13T09:12:22.674Z,22.96
2016-07-13T09:13:26.637Z,23.48
2016-07-13T09:14:19.275Z,23.16
2016-07-13T09:15:16.631Z,23.03
2016-07-13T09:16:16.523Z,23.00
2016-07-13T09:17:17.303Z,22.98
2016-07-13T09:18:22.492Z,22.98
2016-07-13T09:19:17.429Z,22.96
2016-07-13T09:20:20.902Z,22.95
2016-07-13T09:21:24.752Z,22.95
2016-07-13T09:22:15.655Z,22.95
2016-07-13T09:23:24.152Z,22.94
2016-07-13T09:24:27.433Z,22.94
2016-07-13T09:25:21.030Z,22.93
2016-07-13T09:26:22.128Z,22.93
2016-07-13T09:27:15.273Z,22.94
2016-07-13T09:28:22.038Z,22.92
2016-07-13T09:29:16.680Z,22.92
2016-07-13T09:30:20.420Z,22.93
2016-07-13T09:31:18.841Z,22.92
2016-07-13T09:32:19.201Z,22.92
2016-07-13T09:33:18.907Z,22.92
2016-07-13T09:34:27.202Z,22.93
2016-07-13T09:35:21.065Z,22.91
2016-07-13T09:36:21.364Z,22.90
2016-07-13T09:37:20.365Z,22.91
2016-07-13T09:38:18.373Z,22.91
2016-07-13T09:39:17.119Z,22.91
2016-07-13T09:40:18.621Z,22.90
2016-07-13T09:41:22.268Z,22.91
2016-07-13T09:42:17.840Z,22.93
2016-07-13T09:43:16.516Z,22.89
2016-07-13T09:44:16.012Z,22.89
2016-07-13T09:45:16.319Z,22.87
2016-07-13T09:46:16.164Z,23.41
2016-07-13T09:47:23.202Z,23.45
2016-07-13T09:48:17.220Z,23.46
2016-07-13T09:49:20.554Z,23.47
2016-07-13T09:50:20.869Z,23.48
2016-07-13T09:51:22.003Z,23.49
2016-07-13T09:52:17.503Z,23.49
2016-07-13T09:53:18.500Z,23.49
2016-07-13T09:54:19.673Z,23.15
2016-07-13T09:55:22.211Z,22.96
2016-07-13T09:56:21.200Z,22.94
2016-07-13T09:57:21.876Z,22.90
2016-07-13T09:58:18.404Z,22.89
2016-07-13T09:59:16.178Z,22.88
2016-07-13T10:00:14.361Z,22.87
2016-07-13T10:01:16.399Z,22.87
2016-07-13T10:02:15.632Z,22.87
2016-07-13T10:03:21.886Z,22.86
2016-07-13T10:04:20.508Z,22.87
2016-07-13T10:05:23.017Z,22.88
2016-07-13T10:06:27.279Z,22.87
2016-07-13T10:07:19.150Z,22.88
2016-07-13T10:08:17.363Z,22.88
2016-07-13T10:09:27.432Z,22.88
2016-07-13T10:10:20.709Z,22.87
2016-07-13T10:11:16.837Z,22.88
2016-07-13T10:12:16.782Z,22.86
2016-07-13T10:13:17.249Z,22.87
2016-07-13T10:14:21.058Z,22.87
2016-07-13T10:15:21.069Z,22.87
2016-07-13T10:16:20.139Z,22.86
2016-07-13T10:17:22.457Z,22.88
2016-07-13T10:18:21.771Z,22.87
2016-07-13T10:19:16.796Z,22.87
2016-07-13T10:20:19.144Z,22.86
2016-07-13T10:21:21.098Z,22.87
2016-07-13T10:22:18.005Z,22.86
2016-07-13T10:23:21.611Z,22.88
2016-07-13T10:24:16.774Z,22.87
2016-07-13T10:25:21.159Z,22.88
2016-07-13T10:26:21.499Z,22.89
2016-07-13T10:27:23.906Z,22.88
2016-07-13T10:28:21.968Z,22.89
2016-07-13T10:29:19.302Z,22.88
2016-07-13T10:30:26.830Z,22.88
2016-07-13T10:31:16.869Z,22.89
2016-07-13T10:32:16.365Z,22.89
2016-07-13T10:33:16.878Z,22.89
2016-07-13T10:34:17.814Z,22.89
2016-07-13T10:35:20.373Z,22.88
2016-07-13T10:36:24.690Z,22.90
2016-07-13T10:37:21.830Z,22.92
2016-07-13T10:38:21.121Z,22.93
2016-07-13T10:39:22.973Z,22.89
2016-07-13T10:40:19.189Z,22.91
2016-07-13T10:41:16.885Z,22.92
2016-07-13T10:42:17.514Z,22.92
2016-07-13T10:43:19.622Z,22.91
2016-07-13T10:44:17.404Z,22.92
2016-07-13T10:45:21.724Z,22.93
2016-07-13T10:46:17.441Z,22.93
2016-07-13T10:47:20.682Z,22.93
2016-07-13T10:48:16.425Z,22.92
2016-07-13T10:49:25.524Z,23.45
2016-07-13T10:50:22.192Z,23.49
2016-07-13T10:51:19.989Z,23.52
2016-07-13T10:52:17.479Z,23.53
2016-07-13T10:53:23.278Z,23.54
2016-07-13T10:54:15.300Z,23.53
2016-07-13T10:55:25.343Z,23.56
2016-07-13T10:56:18.030Z,23.57
2016-07-13T10:57:16.892Z,23.57
2016-07-13T10:58:26.523Z,23.55
2016-07-13T10:59:26.823Z,23.57
2016-07-13T11:00:19.849Z,23.56
2016-07-13T11:01:26.152Z,23.55
2016-07-13T11:02:26.597Z,23.56
2016-07-13T11:03:28.493Z,23.56
2016-07-13T11:04:25.203Z,23.56
2016-07-13T11:05:21.011Z,23.57
2016-07-13T11:06:15.284Z,23.55
2016-07-13T11:07:15.805Z,23.56
2016-07-13T11:08:18.012Z,23.58
2016-07-13T11:09:23.296Z,23.56
2016-07-13T11:10:26.868Z,23.58
2016-07-13T11:11:22.901Z,23.57
2016-07-13T11:12:21.247Z,23.57
2016-07-13T11:13:16.078Z,23.56
2016-07-13T11:14:21.079Z,23.57
2016-07-13T11:15:19.552Z,23.58
2016-07-13T11:16:17.592Z,23.05
2016-07-13T11:17:16.801Z,23.01
2016-07-13T11:18:16.807Z,22.98
2016-07-13T11:19:17.269Z,22.99
2016-07-13T11:20:21.046Z,22.96
2016-07-13T11:21:20.881Z,22.99
2016-07-13T11:22:20.469Z,22.95
2016-07-13T11:23:20.250Z,22.95
2016-07-13T11:24:22.090Z,22.95
2016-07-13T11:25:15.835Z,22.95
2016-07-13T11:26:17.276Z,22.94
2016-07-13T11:27:17.590Z,22.93
2016-07-13T11:28:16.621Z,22.94
2016-07-13T11:29:17.649Z,22.92
2016-07-13T11:30:17.963Z,22.91
2016-07-13T11:31:20.078Z,22.91
2016-07-13T11:32:18.333Z,22.92
2016-07-13T11:33:20.385Z,22.91
2016-07-13T11:34:21.740Z,22.91
2016-07-13T11:35:22.250Z,22.90
2016-07-13T11:36:17.059Z,22.90
2016-07-13T11:37:16.667Z,22.91
2016-07-13T11:38:18.031Z,22.90
2016-07-13T11:39:22.025Z,22.89
2016-07-13T11:40:22.397Z,23.41
2016-07-13T11:41:21.859Z,23.46
2016-07-13T11:42:21.148Z,23.47
2016-07-13T11:43:26.856Z,23.47
2016-07-13T11:44:22.451Z,23.48
2016-07-13T11:45:22.031Z,23.49
2016-07-13T11:46:21.531Z,23.48
2016-07-13T11:47:16.815Z,23.48
2016-07-13T11:48:17.779Z,23.47
2016-07-13T11:49:17.445Z,23.48
2016-07-13T11:50:22.954Z,23.47
2016-07-13T11:51:27.732Z,22.95
2016-07-13T11:52:21.255Z,22.92
2016-07-13T11:53:18.908Z,22.89
2016-07-13T11:54:22.632Z,22.87
2016-07-13T11:55:23.250Z,22.88
2016-07-13T11:56:16.040Z,22.87
2016-07-13T11:57:18.117Z,23.39
2016-07-13T11:58:18.740Z,23.44
2016-07-13T11:59:17.884Z,22.93
2016-07-13T12:00:22.885Z,22.89
2016-07-13T12:01:18.762Z,22.87
2016-07-13T12:02:23.792Z,22.87
2016-07-13T12:03:19.495Z,22.86
2016-07-13T12:04:22.983Z,22.85
2016-07-13T12:05:16.646Z,22.86
2016-07-13T12:06:21.072Z,22.85
2016-07-13T12:07:20.507Z,22.84
2016-07-13T12:08:17.023Z,22.85
2016-07-13T12:09:15.135Z,22.85
2016-07-13T12:10:28.539Z,22.85
2016-07-13T12:11:23.290Z,22.85
2016-07-13T12:12:21.300Z,22.86
2016-07-13T12:13:16.904Z,22.84
2016-07-13T12:14:27.767Z,22.84
2016-07-13T12:15:17.663Z,22.84
2016-07-13T12:16:19.551Z,22.83
2016-07-13T12:17:23.796Z,22.83
2016-07-13T12:18:17.453Z,22.83
2016-07-13T12:19:25.506Z,22.84
2016-07-13T12:20:26.070Z,22.84
2016-07-13T12:21:14.505Z,22.83
2016-07-13T12:22:21.930Z,22.83
2016-07-13T12:23:16.686Z,22.81
2016-07-13T12:24:23.655Z,22.82
2016-07-13T12:25:22.873Z,22.82
2016-07-13T12:26:20.753Z,22.81
2016-07-13T12:27:19.982Z,22.81
2016-07-13T12:28:16.094Z,22.82
2016-07-13T12:29:18.048Z,22.82
2016-07-13T12:30:17.544Z,22.83
2016-07-13T12:31:22.521Z,22.82
2016-07-13T12:32:16.556Z,22.82
2016-07-13T12:33:22.711Z,22.81
2016-07-13T12:34:24.943Z,22.82
2016-07-13T12:35:15.735Z,22.82
2016-07-13T12:36:17.586Z,22.82
2016-07-13T12:37:21.231Z,22.82
2016-07-13T12:38:19.995Z,22.81
2016-07-13T12:39:17.303Z,22.81
2016-07-13T12:40:17.514Z,22.80
2016-07-13T12:41:23.519Z,22.80
2016-07-13T12:42:24.082Z,22.81
2016-07-13T12:43:14.567Z,22.80
2016-07-13T12:44:22.664Z,22.81
2016-07-13T12:45:22.914Z,22.80
2016-07-13T12:46:17.967Z,22.81
2016-07-13T12:47:20.024Z,22.82
2016-07-13T12:48:22.493Z,22.84
2016-07-13T12:49:18.606Z,22.80
2016-07-13T12:50:20.151Z,23.31
2016-07-13T12:51:23.843Z,23.06
2016-07-13T12:52:16.272Z,22.87
2016-07-13T12:53:21.602Z,22.84
2016-07-13T12:54:18.642Z,22.82
2016-07-13T12:55:14.858Z,22.81
2016-07-13T12:56:16.958Z,22.81
2016-07-13T12:57:24.674Z,22.80
2016-07-13T12:58:20.841Z,22.80
2016-07-13T12:59:21.148Z,22.80
2016-07-13T13:00:25.752Z,22.80
2016-07-13T13:01:20.395Z,22.80
2016-07-13T13:02:26.586Z,22.80